Time;durP1;ratioP1;P1;durP2;ratioP2;P2;SDS_P1;SDS_P2;PMS_P1;PMS_P2;Temp;Humidity;BMP_temperature;BMP_pressure;BME280_temperature;BME280_humidity;BME280_pressure;Samples;Min_cycle;Max_cycle;Signal;HPM_P1;HPM_P2
2022/06/17 00:02:15;;;;;;;8.60;6.28;;;;;;;26.02;60.35;100978.22;4804323;29;20066;-68
2022/06/17 00:04:44;;;;;;;7.07;5.55;;;;;;;26.07;60.44;100981.88;4804801;29;20388;-68
2022/06/17 00:07:15;;;;;;;8.32;6.28;;;;;;;26.28;59.86;100982.22;4808374;29;20047;-68
2022/06/17 00:09:43;;;;;;;7.55;5.88;;;;;;;26.21;60.10;100990.50;4808202;29;20059;-68
2022/06/17 00:12:14;;;;;;;6.13;5.53;;;;;;;26.09;60.88;100993.53;4808259;29;20065;-68
2022/06/17 00:17:30;;;;;;;7.03;6.10;;;;;;;25.95;61.42;100986.50;4798055;29;20053;-68
2022/06/17 00:19:58;;;;;;;6.75;6.00;;;;;;;25.88;62.12;100984.41;4808115;29;20494;-68
2022/06/17 00:22:27;;;;;;;7.28;6.18;;;;;;;25.79;62.32;100983.84;4808123;29;20061;-68
2022/06/17 00:24:55;;;;;;;6.68;6.03;;;;;;;25.69;62.46;100992.88;4808032;29;20071;-68
2022/06/17 00:27:23;;;;;;;11.40;5.57;;;;;;;25.77;62.20;100997.44;4808092;29;20047;-68
2022/06/17 00:29:51;;;;;;;7.03;6.28;;;;;;;25.64;62.72;100994.03;4808269;29;20054;-68
2022/06/17 00:32:18;;;;;;;6.38;5.78;;;;;;;25.52;63.54;100991.38;4806072;29;20051;-68
2022/06/17 00:34:46;;;;;;;6.30;5.65;;;;;;;25.53;63.08;100993.84;4808070;29;20059;-68
2022/06/17 00:37:15;;;;;;;6.65;5.80;;;;;;;25.40;63.83;100989.59;4807653;29;20039;-68
2022/06/17 00:39:43;;;;;;;8.38;6.07;;;;;;;25.33;64.19;100990.25;4807828;29;20451;-68
2022/06/17 00:42:14;;;;;;;7.05;5.72;;;;;;;25.27;64.08;100989.72;4806139;29;20177;-68
2022/06/17 00:45:11;;;;;;;6.82;5.75;;;;;;;25.30;64.15;100991.81;4806694;29;20059;-68
2022/06/17 00:47:42;;;;;;;7.22;6.53;;;;;;;25.45;63.39;100987.28;4806609;29;20510;-68
2022/06/17 00:50:15;;;;;;;6.63;5.75;;;;;;;25.44;63.70;100990.44;4806473;29;20055;-68
2022/06/17 00:52:49;;;;;;;7.93;6.60;;;;;;;25.32;64.11;100983.81;4806060;29;20046;-68
2022/06/17 00:55:26;;;;;;;7.63;6.55;;;;;;;25.32;63.99;100975.44;4791359;29;20073;-68
2022/06/17 00:57:57;;;;;;;6.80;6.10;;;;;;;25.29;64.11;100983.75;4807422;29;20059;-68
2022/06/17 01:00:27;;;;;;;8.98;6.22;;;;;;;25.18;64.37;100975.97;4807526;29;20058;-68
2022/06/17 01:06:32;;;;;;;9.32;6.28;;;;;;;25.13;65.22;100953.91;4805945;29;20046;-69
2022/06/17 01:12:04;;;;;;;7.40;6.18;;;;;;;25.11;65.42;100956.25;4806078;29;20062;-68
2022/06/17 01:14:33;;;;;;;8.00;6.10;;;;;;;25.08;65.64;100945.78;4807572;29;20054;-69
2022/06/17 01:17:02;;;;;;;6.90;6.20;;;;;;;25.05;65.66;100949.31;4804856;29;20410;-69
2022/06/17 01:19:44;;;;;;;7.68;6.53;;;;;;;25.11;65.57;100953.44;4805480;29;20054;-69
2022/06/17 01:22:27;;;;;;;7.50;6.20;;;;;;;25.11;65.03;100949.84;4805988;29;20492;-68
2022/06/17 01:25:01;;;;;;;8.55;6.47;;;;;;;25.47;64.15;100951.28;4805307;29;20426;-68
2022/06/17 01:27:37;;;;;;;8.95;6.65;;;;;;;25.38;64.89;100950.72;4807015;29;20051;-68
2022/06/17 01:30:09;;;;;;;7.28;6.15;;;;;;;25.31;64.66;100953.41;4807178;29;20059;-68
2022/06/17 01:32:47;;;;;;;8.55;6.10;;;;;;;25.43;64.63;100955.22;4805378;29;20078;-68
2022/06/17 01:35:17;;;;;;;7.25;6.38;;;;;;;25.31;65.35;100959.81;4805618;29;20061;-68
2022/06/17 01:37:45;;;;;;;8.63;5.88;;;;;;;25.25;65.37;100966.06;4806773;29;20053;-68
2022/06/17 01:40:14;;;;;;;7.18;6.00;;;;;;;25.12;65.42;100968.25;4806947;29;20502;-69
2022/06/17 01:42:42;;;;;;;6.68;6.05;;;;;;;25.20;65.24;100981.19;4806722;29;20055;-68
2022/06/17 01:45:12;;;;;;;7.30;6.47;;;;;;;25.05;65.72;100975.34;4806678;29;20058;-68
2022/06/17 01:47:43;;;;;;;8.27;6.65;;;;;;;24.91;66.62;100975.88;4806477;29;20054;-69
2022/06/17 01:50:16;;;;;;;8.30;6.43;;;;;;;24.79;67.08;100976.78;4804945;29;20055;-68
2022/06/17 01:53:02;;;;;;;7.45;6.55;;;;;;;24.96;66.72;100980.34;4805403;29;20039;-69
2022/06/17 01:55:41;;;;;;;7.68;6.30;;;;;;;25.01;66.49;100984.84;4805349;29;20065;-69
2022/06/17 01:58:23;;;;;;;10.98;6.93;;;;;;;24.92;66.98;100983.09;4795118;29;20062;-69
2022/06/17 02:00:51;;;;;;;9.27;6.57;;;;;;;24.88;67.44;100976.59;4804863;29;20062;-68
2022/06/17 02:03:28;;;;;;;13.15;7.57;;;;;;;24.83;67.42;100968.53;4804715;29;20063;-68
2022/06/17 02:06:46;;;;;;;11.88;7.05;;;;;;;24.60;68.42;100965.59;4804723;29;20618;-68
2022/06/17 02:09:15;;;;;;;8.07;7.00;;;;;;;24.72;68.17;100961.88;4800456;29;20440;-68
2022/06/17 02:11:47;;;;;;;10.25;6.80;;;;;;;24.51;69.17;100946.25;4804291;29;20061;-68
2022/06/17 02:14:18;;;;;;;10.23;7.07;;;;;;;24.42;69.35;100941.69;4805190;29;20047;-68
2022/06/17 02:17:09;;;;;;;8.07;7.28;;;;;;;24.34;69.91;100941.88;4806097;29;20077;-68
2022/06/17 02:20:03;;;;;;;11.93;7.43;;;;;;;24.42;69.62;100944.47;4783902;29;20439;-68
2022/06/17 02:22:35;;;;;;;9.23;7.13;;;;;;;24.34;69.83;100951.06;4804023;29;20054;-69
2022/06/17 02:25:11;;;;;;;8.75;7.55;;;;;;;24.38;69.66;100943.59;4806008;29;20392;-69
2022/06/17 02:27:41;;;;;;;7.85;6.65;;;;;;;24.26;70.41;100946.50;4805550;29;20532;-69
2022/06/17 02:30:10;;;;;;;8.35;6.80;;;;;;;24.23;70.70;100950.03;4806152;29;20063;-69
2022/06/17 02:32:39;;;;;;;8.75;6.90;;;;;;;24.15;71.09;100954.66;4804416;29;20511;-67
2022/06/17 02:35:23;;;;;;;7.75;6.97;;;;;;;24.08;70.93;100960.91;4804724;29;20062;-67
2022/06/17 02:37:52;;;;;;;11.82;8.00;;;;;;;24.05;71.28;100958.78;4806120;29;20051;-69
2022/06/17 02:40:33;;;;;;;9.18;7.90;;;;;;;23.93;71.78;100956.94;4800925;29;20055;-69
2022/06/17 02:43:05;;;;;;;11.38;7.82;;;;;;;23.98;71.50;100959.44;4805808;29;20057;-67
2022/06/17 02:45:39;;;;;;;10.15;8.00;;;;;;;24.14;70.84;100956.66;4803965;29;20051;-68
2022/06/17 02:48:24;;;;;;;8.98;8.07;;;;;;;24.12;70.99;100955.38;4804041;29;20063;-68
2022/06/17 02:50:55;;;;;;;9.43;8.43;;;;;;;24.01;71.31;100958.69;4803964;29;20051;-67
2022/06/17 02:53:37;;;;;;;9.68;7.70;;;;;;;23.95;71.65;100959.38;4804590;29;20051;-68
2022/06/17 02:56:16;;;;;;;9.65;7.88;;;;;;;23.93;71.68;100964.47;4803750;29;20059;-68
2022/06/17 02:58:54;;;;;;;11.07;7.82;;;;;;;23.85;72.28;100966.31;4804293;29;20542;-68
2022/06/17 03:01:27;;;;;;;9.10;7.65;;;;;;;23.81;72.50;100971.00;4803977;29;20058;-68
2022/06/17 03:04:31;;;;;;;11.77;7.75;;;;;;;24.00;71.27;100973.06;4803598;29;20055;-68
2022/06/17 03:07:08;;;;;;;10.20;8.43;;;;;;;24.07;71.08;100978.84;4792226;29;20051;-68
2022/06/17 03:09:36;;;;;;;12.32;8.43;;;;;;;23.98;71.38;100981.81;4804402;29;20051;-68
2022/06/17 03:12:10;;;;;;;11.25;7.95;;;;;;;23.91;71.65;100983.59;4805495;29;20062;-68
2022/06/17 03:14:50;;;;;;;12.85;7.68;;;;;;;23.84;72.02;100981.44;4805582;29;20062;-68
2022/06/17 03:17:24;;;;;;;8.50;7.10;;;;;;;23.80;71.98;100986.94;4804013;29;20051;-68
2022/06/17 03:19:56;;;;;;;7.90;7.05;;;;;;;23.80;71.69;100994.53;4804715;29;20058;-68
2022/06/17 03:22:26;;;;;;;11.25;7.97;;;;;;;23.78;71.66;100992.09;4814929;29;20061;-69
2022/06/17 03:25:17;;;;;;;11.98;7.80;;;;;;;23.73;72.17;100993.19;4823520;29;20055;-68
2022/06/17 03:27:53;;;;;;;9.18;7.45;;;;;;;23.72;72.01;101001.91;4811898;29;20520;-70
2022/06/17 03:30:32;;;;;;;9.95;7.78;;;;;;;23.68;71.82;101004.63;4806332;29;20049;-69
2022/06/17 03:33:11;;;;;;;11.90;7.28;;;;;;;23.61;71.88;101012.84;4803900;29;20046;-69
2022/06/17 03:35:43;;;;;;;12.13;7.28;;;;;;;23.65;71.54;101004.53;4803891;29;20051;-68
2022/06/17 03:38:49;;;;;;;8.73;6.47;;;;;;;23.66;71.22;101008.94;4804017;29;20042;-68
2022/06/17 03:41:30;;;;;;;12.60;7.32;;;;;;;23.92;70.00;101010.38;4798392;29;20077;-68
2022/06/17 03:44:03;;;;;;;13.10;7.43;;;;;;;23.93;70.05;101012.00;4801432;29;20055;-69
2022/06/17 03:46:47;;;;;;;11.38;6.20;;;;;;;24.02;69.44;101015.44;4799257;29;20546;-69
2022/06/17 03:49:25;;;;;;;9.20;6.60;;;;;;;23.99;69.75;101021.72;4806994;29;20051;-67
2022/06/17 03:51:59;;;;;;;9.32;7.00;;;;;;;23.88;70.05;101022.28;4807201;29;20054;-68
2022/06/17 03:54:28;;;;;;;8.55;7.10;;;;;;;23.82;70.44;101018.16;4812751;29;20494;-67
2022/06/17 03:56:58;;;;;;;9.80;7.10;;;;;;;23.98;69.82;101020.13;4814786;29;20435;-68
2022/06/17 03:59:31;;;;;;;8.38;7.03;;;;;;;24.10;69.70;101022.03;4806710;29;20050;-68
2022/06/17 04:02:09;;;;;;;8.88;7.40;;;;;;;24.14;69.24;101028.50;4808730;29;20062;-68
2022/06/17 04:04:42;;;;;;;10.35;7.53;;;;;;;24.21;69.66;101033.47;4806769;29;20047;-68
2022/06/17 04:07:12;;;;;;;9.40;7.28;;;;;;;24.22;69.95;101035.91;4807493;29;20046;-67
2022/06/17 04:09:47;;;;;;;10.32;7.60;;;;;;;24.26;69.82;101048.00;4808366;29;20055;-67
2022/06/17 04:12:26;;;;;;;11.40;7.28;;;;;;;24.26;69.63;101042.41;4808627;29;20098;-68
2022/06/17 04:15:30;;;;;;;9.82;8.23;;;;;;;24.12;70.62;101051.25;4807131;29;20126;-68
2022/06/17 04:17:58;;;;;;;12.07;7.88;;;;;;;24.16;70.70;101049.34;4806331;29;20098;-68
2022/06/17 04:20:48;;;;;;;8.98;7.32;;;;;;;24.22;70.58;101051.88;4806890;29;20055;-67
2022/06/17 04:23:21;;;;;;;11.50;7.45;;;;;;;24.50;69.35;101057.34;4806290;29;20530;-67
2022/06/17 04:26:23;;;;;;;8.52;7.18;;;;;;;24.64;69.06;101062.41;4807464;29;20050;-68
2022/06/17 04:28:58;;;;;;;10.00;7.78;;;;;;;24.75;68.30;101050.66;4804556;29;20054;-68
2022/06/17 04:31:32;;;;;;;8.15;7.30;;;;;;;24.65;68.96;101049.25;4807210;29;20075;-68
2022/06/17 04:34:15;;;;;;;9.48;7.85;;;;;;;24.62;68.86;101048.00;4806579;29;20058;-68
2022/06/17 04:37:04;;;;;;;10.40;7.57;;;;;;;24.80;68.19;101044.78;4806437;29;20062;-68
2022/06/17 04:39:54;;;;;;;10.18;7.30;;;;;;;24.84;68.49;101056.91;4805655;29;20074;-68
2022/06/17 04:42:33;;;;;;;9.02;7.60;;;;;;;24.98;68.07;101063.97;4802211;29;20039;-68
2022/06/17 04:45:02;;;;;;;9.48;7.82;;;;;;;25.08;67.64;101069.00;4804432;29;20058;-68
2022/06/17 04:47:33;;;;;;;12.38;8.05;;;;;;;25.05;67.68;101067.72;4805359;29;20054;-68
2022/06/17 04:50:12;;;;;;;14.00;8.35;;;;;;;25.14;67.46;101061.09;4816712;29;20054;-67
2022/06/17 04:52:45;;;;;;;10.40;6.95;;;;;;;25.12;67.17;101072.66;4803634;29;20498;-68
2022/06/17 04:55:28;;;;;;;8.95;7.63;;;;;;;25.42;66.03;101072.03;4800857;29;20054;-73
2022/06/17 04:58:25;;;;;;;9.48;7.30;;;;;;;25.61;65.18;101064.84;4797107;29;20058;-74
2022/06/17 05:01:17;;;;;;;12.55;7.20;;;;;;;25.89;64.20;101070.13;4796534;29;20055;-74
2022/06/17 05:04:04;;;;;;;8.23;6.60;;;;;;;26.07;63.32;101072.44;4811926;29;20410;-74
2022/06/17 05:06:39;;;;;;;11.68;7.40;;;;;;;26.28;62.24;101062.75;4803834;29;20051;-74
2022/06/17 05:09:25;;;;;;;7.65;6.75;;;;;;;26.47;61.93;101061.84;4808941;29;20054;-74
2022/06/17 05:12:01;;;;;;;7.72;6.82;;;;;;;26.47;61.33;101063.81;4811507;29;20059;-74
2022/06/17 05:14:51;;;;;;;9.52;7.30;;;;;;;26.62;61.37;101059.22;4804191;29;20074;-73
2022/06/17 05:17:20;;;;;;;7.93;7.13;;;;;;;26.75;60.85;101063.44;4811985;29;20058;-73
2022/06/17 05:19:50;;;;;;;9.63;7.05;;;;;;;26.91;60.19;101063.28;4805411;29;20058;-73
2022/06/17 05:22:33;;;;;;;8.73;6.85;;;;;;;27.10;59.47;101061.50;4806465;29;20059;-73
2022/06/17 05:25:04;;;;;;;;;;;;;;;27.21;59.15;101058.78;4806020;29;20517;-73
2022/06/17 05:27:33;;;;;;;7.35;6.63;;;;;;;27.18;59.48;101053.97;4805552;29;19925;-73
2022/06/17 05:30:01;;;;;;;8.88;7.68;;;;;;;27.33;59.17;101052.91;4804767;29;20062;-73
2022/06/17 05:32:34;;;;;;;11.00;7.63;;;;;;;27.46;59.13;101058.28;4793928;29;20043;-74
2022/06/17 05:35:03;;;;;;;10.85;7.25;;;;;;;27.53;58.65;101046.28;4813121;29;20055;-74
2022/06/17 05:37:31;;;;;;;8.70;7.45;;;;;;;27.64;58.35;101055.66;4804846;29;20065;-74
2022/06/17 05:40:05;;;;;;;12.80;7.60;;;;;;;27.61;58.59;101050.84;4804973;29;20046;-74
2022/06/17 05:42:34;;;;;;;9.52;7.10;;;;;;;27.72;57.95;101048.13;4811167;29;20042;-74
2022/06/17 05:45:02;;;;;;;8.57;7.68;;;;;;;27.73;57.79;101053.34;4805624;29;20054;-74
2022/06/17 05:47:54;;;;;;;7.35;6.57;;;;;;;27.79;57.35;101047.34;4797313;29;20067;-74
2022/06/17 05:50:31;;;;;;;9.05;6.45;;;;;;;27.80;56.69;101054.63;4805160;29;20075;-74
2022/06/17 05:53:14;;;;;;;7.57;6.88;;;;;;;27.77;56.58;101056.19;4804005;29;20050;-73
2022/06/17 05:55:54;;;;;;;9.73;7.13;;;;;;;27.88;56.28;101062.72;4805040;29;20047;-73
2022/06/17 05:58:23;;;;;;;9.65;7.90;;;;;;;27.92;56.34;101057.13;4806080;29;20418;-73
2022/06/17 06:00:53;;;;;;;8.40;7.57;;;;;;;28.11;56.83;101058.09;4808219;29;20065;-74
2022/06/17 06:03:25;;;;;;;8.40;7.50;;;;;;;28.16;55.40;101064.13;4805042;29;20055;-74
2022/06/17 06:05:56;;;;;;;9.07;7.88;;;;;;;28.20;55.07;101069.00;4786943;29;20515;-73
2022/06/17 06:08:25;;;;;;;10.27;7.97;;;;;;;28.26;54.59;101075.91;4802567;29;20058;-74
2022/06/17 06:10:54;;;;;;;10.13;7.43;;;;;;;28.37;55.25;101076.78;4805199;29;20065;-74
2022/06/17 06:13:26;;;;;;;10.10;7.80;;;;;;;28.40;54.91;101069.56;4817968;29;20050;-74
2022/06/17 06:15:55;;;;;;;9.65;6.70;;;;;;;28.43;53.07;101078.03;4804399;29;20066;-74
2022/06/17 06:18:32;;;;;;;7.88;6.72;;;;;;;28.51;53.00;101086.53;4804621;29;20054;-74
2022/06/17 06:21:07;;;;;;;10.05;6.75;;;;;;;28.54;52.35;101080.91;4786959;29;20047;-74
2022/06/17 06:23:38;;;;;;;7.43;6.73;;;;;;;28.65;52.78;101077.34;4802106;29;20058;-74
2022/06/17 06:26:12;;;;;;;7.35;6.65;;;;;;;28.75;51.55;101075.78;4803939;29;20063;-74
2022/06/17 06:28:43;;;;;;;7.70;6.93;;;;;;;28.90;51.45;101080.34;4804204;29;20061;-74
2022/06/17 06:31:35;;;;;;;9.40;6.57;;;;;;;29.05;51.24;101086.84;4804770;29;20384;-74
2022/06/17 06:34:20;;;;;;;6.80;6.13;;;;;;;29.13;50.07;101086.84;4804970;29;20138;-74
2022/06/17 06:36:48;;;;;;;8.50;6.70;;;;;;;29.10;51.21;101082.81;4804387;29;20526;-74
2022/06/17 06:39:16;;;;;;;7.15;6.13;;;;;;;29.20;50.11;101086.88;4805724;29;20059;-74
2022/06/17 06:41:44;;;;;;;7.07;6.18;;;;;;;29.24;49.73;101084.88;4803719;29;20059;-74
2022/06/17 06:44:13;;;;;;;6.90;6.15;;;;;;;29.30;49.86;101080.47;4786144;29;20051;-73
2022/06/17 06:47:05;;;;;;;8.82;6.03;;;;;;;29.38;48.60;101092.59;4799009;29;20051;-73
2022/06/17 06:49:51;;;;;;;8.00;5.75;;;;;;;29.52;48.42;101100.31;4805807;29;20061;-74
2022/06/17 06:52:24;;;;;;;6.30;5.68;;;;;;;29.52;48.23;101091.84;4803782;29;20047;-74
2022/06/17 06:54:52;;;;;;;6.22;5.60;;;;;;;29.69;48.22;101101.53;4804302;29;20043;-74
2022/06/17 06:57:20;;;;;;;6.30;5.70;;;;;;;29.72;49.55;101100.72;4803753;29;20050;-74
2022/06/17 07:00:06;;;;;;;10.65;7.45;;;;;;;29.64;51.05;101093.47;4803648;29;20065;-74
2022/06/17 07:02:35;;;;;;;13.77;8.10;;;;;;;29.51;51.68;101101.50;4804053;29;20046;-74
2022/06/17 07:05:04;;;;;;;8.30;7.50;;;;;;;29.34;52.09;101095.41;4802991;29;20529;-74
2022/06/17 07:07:38;;;;;;;13.70;7.97;;;;;;;29.17;53.22;101096.94;4805128;29;20471;-75
2022/06/17 07:10:09;;;;;;;12.77;7.90;;;;;;;29.03;53.79;101103.31;4805298;29;20069;-74
2022/06/17 07:12:37;;;;;;;13.82;8.70;;;;;;;28.95;53.76;101110.13;4805242;29;20498;-74
2022/06/17 07:15:07;;;;;;;12.82;8.45;;;;;;;29.01;53.34;101114.19;4804627;29;20054;-75
2022/06/17 07:17:35;;;;;;;12.70;8.43;;;;;;;29.08;53.14;101130.31;4804474;29;20407;-75
2022/06/17 07:20:03;;;;;;;11.48;8.93;;;;;;;29.15;53.53;101127.53;4805259;29;20066;-75
2022/06/17 07:22:31;;;;;;;12.18;9.73;;;;;;;29.13;53.20;101132.75;4805130;29;20055;-69
2022/06/17 07:25:03;;;;;;;11.40;8.73;;;;;;;29.31;53.45;101127.19;4804988;29;20057;-74
2022/06/17 07:27:31;;;;;;;10.68;8.43;;;;;;;29.60;52.05;101132.13;4805076;29;20423;-74
2022/06/17 07:29:58;;;;;;;11.13;9.15;;;;;;;29.49;51.73;101130.09;4805176;29;20406;-75
2022/06/17 07:32:26;;;;;;;9.07;7.63;;;;;;;29.70;51.59;101130.53;4804798;29;20034;-74
2022/06/17 07:34:54;;;;;;;8.52;7.53;;;;;;;29.80;50.57;101132.56;4804948;29;20047;-74
2022/06/17 07:40:09;;;;;;;11.70;8.00;;;;;;;30.10;49.12;101131.41;4805384;29;20050;-74
2022/06/17 07:42:37;;;;;;;12.40;8.38;;;;;;;30.25;49.18;101137.84;4792224;29;20047;-74
2022/06/17 07:45:10;;;;;;;11.60;8.43;;;;;;;30.25;48.72;101137.06;4804903;29;20058;-74
2022/06/17 07:47:40;;;;;;;10.52;8.45;;;;;;;30.44;48.96;101130.19;4804855;29;20054;-74
2022/06/17 07:50:12;;;;;;;17.27;8.65;;;;;;;30.41;47.80;101128.19;4805069;29;20066;-74
2022/06/17 07:52:43;;;;;;;7.95;6.57;;;;;;;30.42;48.40;101119.31;4804506;29;20051;-74
2022/06/17 07:55:11;;;;;;;10.07;7.45;;;;;;;30.50;47.64;101130.59;4804733;29;20047;-75
2022/06/17 07:57:43;;;;;;;11.48;8.13;;;;;;;30.58;47.65;101120.88;4804292;29;20051;-75
2022/06/17 08:00:28;;;;;;;11.88;7.05;;;;;;;30.81;47.57;101120.47;4800535;29;20070;-75
2022/06/17 08:02:57;;;;;;;11.50;8.68;;;;;;;30.82;46.78;101121.25;4803846;29;20055;-74
2022/06/17 08:05:25;;;;;;;11.05;8.38;;;;;;;30.49;47.60;101110.00;4804397;29;20392;-75
2022/06/17 08:07:55;;;;;;;12.32;6.45;;;;;;;30.81;47.11;101119.66;4804546;29;20406;-75
2022/06/17 08:10:26;;;;;;;11.50;7.60;;;;;;;31.08;45.93;101119.97;4804612;29;20058;-75
2022/06/17 08:12:54;;;;;;;10.27;6.97;;;;;;;31.27;45.67;101115.06;4804236;29;20403;-75
2022/06/17 08:15:23;;;;;;;11.13;8.57;;;;;;;31.04;45.51;101107.84;4804623;29;20066;-75
2022/06/17 08:17:52;;;;;;;7.95;6.68;;;;;;;31.21;46.11;101106.19;4804580;29;20079;-74
2022/06/17 08:20:26;;;;;;;11.13;7.82;;;;;;;31.04;45.97;101107.84;4804493;29;20046;-74
2022/06/17 08:22:55;;;;;;;11.15;6.93;;;;;;;31.31;45.72;101110.19;4804896;29;20054;-74
2022/06/17 08:25:23;;;;;;;7.93;6.65;;;;;;;31.58;45.29;101106.81;4804822;29;20055;-74
2022/06/17 08:27:54;;;;;;;7.43;6.15;;;;;;;31.73;43.94;101106.72;4803277;29;20055;-74
2022/06/17 08:30:29;;;;;;;6.15;5.63;;;;;;;31.72;44.35;101105.13;4804565;29;20065;-74
2022/06/17 08:32:58;;;;;;;6.93;6.32;;;;;;;31.32;44.55;101106.16;4808289;29;20529;-74
2022/06/17 08:35:30;;;;;;;7.22;6.55;;;;;;;31.49;44.52;101103.63;4807546;29;20495;-74
2022/06/17 08:38:07;;;;;;;7.15;5.63;;;;;;;31.38;44.29;101118.63;4807470;29;20067;-74
2022/06/17 08:40:37;;;;;;;7.13;6.43;;;;;;;31.60;44.34;101107.22;4807865;29;20070;-74
2022/06/17 08:43:42;;;;;;;6.78;5.70;;;;;;;31.81;43.44;101113.91;4807540;29;20502;-74
2022/06/17 08:46:19;;;;;;;6.95;6.25;;;;;;;31.98;43.33;101100.91;4795872;29;20063;-74
2022/06/17 08:49:26;;;;;;;6.45;5.80;;;;;;;31.79;43.35;101107.88;4807344;29;20070;-74
2022/06/17 08:52:06;;;;;;;7.25;5.57;;;;;;;31.52;44.23;101102.78;4807552;29;20123;-74
2022/06/17 08:54:58;;;;;;;7.32;5.18;;;;;;;31.61;43.53;101108.00;4807568;29;20051;-74
2022/06/17 08:57:26;;;;;;;8.10;5.55;;;;;;;31.61;43.67;101108.00;4806901;29;20532;-75
2022/06/17 09:00:11;;;;;;;6.88;5.88;;;;;;;31.63;43.80;101109.19;4807458;29;20063;-75
2022/06/17 09:03:09;;;;;;;7.20;5.88;;;;;;;31.44;43.78;101096.41;4807321;29;20055;-74
2022/06/17 09:05:40;;;;;;;7.72;5.88;;;;;;;31.57;43.71;101110.84;4806018;29;20062;-74
2022/06/17 09:08:28;;;;;;;7.82;6.10;;;;;;;31.47;43.46;101106.09;4807416;29;20055;-75
2022/06/17 09:11:02;;;;;;;6.22;5.63;;;;;;;31.32;43.92;101105.38;4807448;29;20439;-74
2022/06/17 09:13:30;;;;;;;;;;;;;;;31.44;43.83;101115.38;4807568;29;20051;-74
2022/06/17 09:16:22;;;;;;;4.93;4.43;;;;;;;31.75;42.48;101109.94;4807376;29;19925;-74
2022/06/17 09:18:59;;;;;;;6.68;5.38;;;;;;;31.73;42.49;101103.88;4807028;29;20058;-74
2022/06/17 09:21:32;;;;;;;5.45;4.95;;;;;;;31.67;42.39;101109.19;4807005;29;20091;-75
2022/06/17 09:24:10;;;;;;;7.05;5.40;;;;;;;31.70;42.60;101101.88;4807120;29;20388;-75
2022/06/17 09:26:49;;;;;;;6.05;5.30;;;;;;;31.83;42.10;101103.00;4807162;29;20065;-75
2022/06/17 09:29:27;;;;;;;5.35;4.93;;;;;;;31.99;41.55;101107.34;4806607;29;20051;-74
2022/06/17 09:32:02;;;;;;;5.40;4.90;;;;;;;31.96;41.45;101111.03;4802487;29;20494;-74
2022/06/17 09:34:44;;;;;;;5.85;5.25;;;;;;;31.99;41.25;101102.50;4806808;29;20062;-74
2022/06/17 09:37:33;;;;;;;6.55;5.75;;;;;;;31.95;41.10;101100.94;4806294;29;20042;-74
2022/06/17 09:40:08;;;;;;;5.40;4.97;;;;;;;32.00;40.71;101109.78;4806506;29;20062;-74
2022/06/17 09:42:52;;;;;;;6.53;5.90;;;;;;;32.16;40.26;101103.56;4806566;29;20054;-74
2022/06/17 09:45:38;;;;;;;6.43;5.70;;;;;;;32.24;40.26;101114.81;4806688;29;20051;-74
2022/06/17 09:48:13;;;;;;;6.38;5.50;;;;;;;32.38;40.05;101117.53;4796510;29;20051;-75
2022/06/17 09:50:46;;;;;;;7.35;5.38;;;;;;;32.38;39.58;101114.69;4807025;29;20063;-74
2022/06/17 09:53:31;;;;;;;5.50;5.00;;;;;;;32.37;39.45;101110.25;4806044;29;20058;-74
2022/06/17 09:56:12;;;;;;;5.70;5.03;;;;;;;32.32;40.00;101107.88;4815941;29;20043;-75
2022/06/17 09:58:49;;;;;;;5.43;5.03;;;;;;;32.34;40.14;101104.63;4806270;29;20070;-74
2022/06/17 10:01:25;;;;;;;6.30;4.97;;;;;;;32.49;39.64;101116.66;4802222;29;20067;-74
2022/06/17 10:03:53;;;;;;;6.03;5.40;;;;;;;32.49;40.17;101108.16;4795653;29;20059;-74
2022/06/17 10:06:32;;;;;;;6.60;5.30;;;;;;;32.40;40.23;101119.94;4808028;29;20055;-74
2022/06/17 10:09:19;;;;;;;6.03;4.72;;;;;;;32.47;39.70;101114.22;4804610;29;20061;-74
2022/06/17 10:12:17;;;;;;;6.00;5.43;;;;;;;32.49;40.02;101120.28;4817419;29;20063;-74
2022/06/17 10:14:54;;;;;;;5.57;4.80;;;;;;;32.58;39.56;101109.25;4806081;29;20054;-75
2022/06/17 10:20:35;;;;;;;5.60;5.10;;;;;;;32.70;38.98;101102.25;4805170;29;20063;-73
2022/06/17 10:23:50;;;;;;;6.53;5.93;;;;;;;32.78;38.83;101105.81;4805429;29;20058;-73
2022/06/17 10:26:28;;;;;;;8.10;5.43;;;;;;;33.07;38.36;101108.31;4767187;30;20078;-73
2022/06/17 10:29:16;;;;;;;6.35;5.32;;;;;;;33.04;37.66;101109.16;4772220;30;20062;-73
2022/06/17 10:31:47;;;;;;;6.43;5.72;;;;;;;33.11;37.93;101105.44;4794443;29;20058;-73
2022/06/17 10:34:32;;;;;;;5.75;5.15;;;;;;;33.05;38.01;101101.47;4793129;29;20054;-73
2022/06/17 10:37:03;;;;;;;5.95;5.38;;;;;;;33.07;37.99;101093.31;4800391;29;20050;-73
2022/06/17 10:39:35;;;;;;;6.32;5.72;;;;;;;33.24;37.39;101097.16;4805440;29;20051;-73
2022/06/17 10:42:07;;;;;;;6.18;5.15;;;;;;;33.18;37.34;101094.00;4807629;29;20624;-72
2022/06/17 10:44:37;;;;;;;5.90;5.30;;;;;;;33.32;37.31;101084.50;4802712;29;20510;-73
2022/06/17 10:47:14;;;;;;;23.63;6.68;;;;;;;33.23;37.54;101078.56;4800904;29;20047;-76
2022/06/17 10:50:07;;;;;;;9.30;5.80;;;;;;;33.38;36.90;101085.63;4795921;29;20491;-75
2022/06/17 10:52:43;;;;;;;6.20;5.68;;;;;;;33.47;37.01;101079.41;4791701;29;20043;-74
2022/06/17 10:55:31;;;;;;;6.53;5.93;;;;;;;33.63;37.15;101089.34;4790773;29;20054;-76
2022/06/17 10:58:09;;;;;;;9.18;5.50;;;;;;;33.28;36.89;101082.94;4790801;29;20519;-74
2022/06/17 11:00:51;;;;;;;7.35;5.97;;;;;;;33.53;36.97;101081.78;4790751;29;20090;-75
2022/06/17 11:03:26;;;;;;;7.32;5.30;;;;;;;33.58;37.11;101072.81;4798095;29;20533;-73
2022/06/17 11:06:15;;;;;;;7.18;5.03;;;;;;;33.59;36.47;101078.06;4796793;29;20410;-75
2022/06/17 11:08:49;;;;;;;5.65;5.15;;;;;;;33.77;35.99;101071.28;4799896;29;20499;-74
2022/06/17 11:14:45;;;;;;;5.68;5.18;;;;;;;33.89;36.05;101079.19;4792927;29;20526;-75
2022/06/17 11:17:31;;;;;;;6.45;5.80;;;;;;;33.92;35.53;101066.19;4786205;29;20534;-75
2022/06/17 11:20:07;;;;;;;6.18;5.22;;;;;;;33.97;35.85;101062.84;4800851;29;20058;-74
2022/06/17 11:23:07;;;;;;;6.60;6.00;;;;;;;34.02;35.72;101070.84;4798086;29;20368;-74
2022/06/17 11:25:38;;;;;;;7.68;5.35;;;;;;;34.17;35.47;101062.91;4790654;29;20487;-74
2022/06/17 11:28:23;;;;;;;5.47;4.97;;;;;;;34.02;35.43;101058.69;4802426;29;20062;-74
2022/06/17 11:31:00;;;;;;;6.65;5.35;;;;;;;34.16;35.04;101057.69;4796238;29;20054;-74
2022/06/17 11:33:33;;;;;;;8.63;5.28;;;;;;;34.27;34.72;101055.44;4794753;29;20376;-74
2022/06/17 11:36:15;;;;;;;;;;;;;;;34.49;34.42;101063.53;4793917;29;20043;-74
2022/06/17 11:38:43;;;;;;;6.00;5.40;;;;;;;34.63;33.98;101050.28;4787714;29;19948;-74
2022/06/17 11:41:29;;;;;;;4.65;4.30;;;;;;;34.56;34.45;101052.00;4795867;29;20059;-74
2022/06/17 11:44:10;;;;;;;5.25;4.78;;;;;;;34.70;32.78;101047.34;4789140;29;20072;-74
2022/06/17 11:46:58;;;;;;;5.22;4.68;;;;;;;34.79;33.47;101053.22;4795035;29;20058;-74
2022/06/17 11:49:27;;;;;;;6.10;4.57;;;;;;;34.65;33.44;101054.31;4791685;29;20052;-74
2022/06/17 11:52:02;;;;;;;5.65;5.15;;;;;;;34.63;33.86;101044.63;4785687;29;20059;-74
2022/06/17 11:54:40;;;;;;;6.53;4.78;;;;;;;34.91;33.41;101048.91;4794696;29;20071;-75
2022/06/17 11:57:17;;;;;;;4.85;4.20;;;;;;;35.00;31.76;101045.47;4787991;29;20496;-74
2022/06/17 11:59:49;;;;;;;5.28;4.78;;;;;;;34.97;31.08;101046.34;4796773;29;20502;-75
2022/06/17 12:02:18;;;;;;;4.70;4.30;;;;;;;34.84;31.54;101044.16;4816130;29;20071;-75
2022/06/17 12:04:46;;;;;;;5.05;4.65;;;;;;;34.77;31.65;101038.66;4806887;29;20073;-74
2022/06/17 12:07:22;;;;;;;5.00;4.50;;;;;;;34.96;31.35;101045.56;4808134;29;20074;-74
2022/06/17 12:10:13;;;;;;;6.85;4.97;;;;;;;35.00;31.51;101042.63;4804551;29;20396;-74
2022/06/17 12:12:43;;;;;;;5.45;4.20;;;;;;;35.24;31.29;101036.84;4808028;29;20066;-75
2022/06/17 12:15:27;;;;;;;5.18;4.68;;;;;;;35.08;31.84;101029.84;4808464;29;20050;-75
2022/06/17 12:18:07;;;;;;;4.97;4.53;;;;;;;35.31;30.96;101035.84;4807445;29;20058;-74
2022/06/17 12:21:13;;;;;;;6.00;4.50;;;;;;;35.45;30.31;101031.88;4795164;29;20430;-74
2022/06/17 12:23:46;;;;;;;4.93;4.53;;;;;;;35.59;30.98;101023.00;4804712;29;20050;-75
2022/06/17 12:26:38;;;;;;;7.07;4.95;;;;;;;35.52;31.47;101028.84;4791261;29;20411;-74